Time;durP1;ratioP1;P1;durP2;ratioP2;P2;SDS_P1;SDS_P2;PMS_P1;PMS_P2;Temp;Humidity;BMP_temperature;BMP_pressure;BME280_temperature;BME280_humidity;BME280_pressure;Samples;Min_cycle;Max_cycle;Signal;HPM_P1;HPM_P2
2023/05/20 00:00:49;;;;;;;24.73;8.27;;;14.10;92.80;;;;;;4214285;28;20044;-52
2023/05/20 00:02:51;;;;;;;22.35;8.23;;;14.00;92.70;;;;;;4213146;28;20056;-52
2023/05/20 00:04:54;;;;;;;20.10;8.55;;;14.00;92.90;;;;;;4213792;28;20135;-55
2023/05/20 00:06:56;;;;;;;19.48;8.23;;;14.00;92.90;;;;;;4213608;28;20497;-55
2023/05/20 00:08:58;;;;;;;19.10;8.75;;;14.00;92.90;;;;;;4213305;28;20042;-55
2023/05/20 00:11:02;;;;;;;27.50;9.02;;;14.00;92.90;;;;;;4213957;28;20139;-53
2023/05/20 00:13:07;;;;;;;22.75;8.73;;;13.90;93.00;;;;;;4214355;28;20131;-51
2023/05/20 00:15:13;;;;;;;24.92;8.85;;;14.00;92.90;;;;;;4214034;28;20044;-51
2023/05/20 00:17:15;;;;;;;20.17;8.98;;;13.90;93.00;;;;;;4212944;28;20055;-57
2023/05/20 00:19:17;;;;;;;22.45;8.52;;;13.90;93.00;;;;;;4213894;28;20051;-55
2023/05/20 00:21:19;;;;;;;23.85;9.27;;;13.90;93.10;;;;;;4213260;28;20044;-57
2023/05/20 00:23:21;;;;;;;14.55;7.88;;;13.90;93.00;;;;;;4213741;28;20486;-56
2023/05/20 00:25:23;;;;;;;20.60;8.50;;;13.80;93.10;;;;;;4213856;28;20047;-58
2023/05/20 00:27:26;;;;;;;15.57;8.00;;;13.80;93.10;;;;;;4196109;28;20502;-57
2023/05/20 00:29:29;;;;;;;21.17;8.52;;;13.80;93.10;;;;;;4196773;28;20413;-58
2023/05/20 00:31:31;;;;;;;15.68;7.28;;;13.80;93.20;;;;;;4196924;28;20049;-57
2023/05/20 00:33:35;;;;;;;19.67;8.13;;;13.80;93.10;;;;;;4199130;28;20515;-55
2023/05/20 00:35:37;;;;;;;14.05;7.18;;;13.80;93.10;;;;;;4213560;28;20040;-55
2023/05/20 00:37:39;;;;;;;21.60;8.18;;;13.80;93.10;;;;;;4213050;28;20048;-55
2023/05/20 00:39:41;;;;;;;18.42;8.02;;;13.80;93.20;;;;;;4197616;28;20047;-55
2023/05/20 00:41:43;;;;;;;16.70;8.27;;;13.70;93.20;;;;;;4197306;28;20057;-55
2023/05/20 00:43:46;;;;;;;23.80;7.53;;;13.70;93.20;;;;;;4197369;28;20076;-62
2023/05/20 00:45:50;;;;;;;22.73;8.25;;;13.70;93.20;;;;;;4197556;28;20040;-54
2023/05/20 00:47:56;;;;;;;21.35;7.85;;;13.80;93.20;;;;;;4197062;28;20059;-57
2023/05/20 00:49:59;;;;;;;23.42;7.85;;;13.80;93.10;;;;;;4196527;28;20048;-56
2023/05/20 00:52:01;;;;;;;16.92;8.02;;;13.80;93.20;;;;;;4199269;28;20045;-61
2023/05/20 00:54:03;;;;;;;17.20;7.57;;;13.80;93.20;;;;;;4198914;28;20102;-57
2023/05/20 00:56:07;;;;;;;19.42;7.45;;;13.80;93.20;;;;;;4198622;28;20078;-69
2023/05/20 00:58:10;;;;;;;18.95;8.00;;;13.70;93.20;;;;;;4196793;28;20409;-57
2023/05/20 01:00:14;;;;;;;21.90;7.05;;;13.70;93.20;;;;;;4197103;28;20152;-65
2023/05/20 01:02:18;;;;;;;22.13;8.05;;;13.80;93.30;;;;;;4197133;28;20127;-57
2023/05/20 01:04:20;;;;;;;23.55;8.02;;;13.80;93.20;;;;;;4197017;28;20120;-57
2023/05/20 01:06:22;;;;;;;18.73;7.70;;;13.70;93.20;;;;;;4197391;28;20044;-56
2023/05/20 01:08:25;;;;;;;19.10;7.55;;;13.70;93.40;;;;;;4195803;28;20045;-57
2023/05/20 01:10:29;;;;;;;24.45;7.88;;;13.60;93.50;;;;;;4196618;28;20045;-56
2023/05/20 01:12:36;;;;;;;18.85;7.97;;;13.60;93.50;;;;;;4196615;28;20055;-56
2023/05/20 01:14:44;;;;;;;20.23;8.02;;;13.60;93.60;;;;;;4198750;28;20094;-57
2023/05/20 01:16:49;;;;;;;22.65;8.48;;;13.60;93.50;;;;;;4199408;28;20119;-56
2023/05/20 01:18:54;;;;;;;18.10;6.67;;;13.60;93.50;;;;;;4198249;28;20071;-54
2023/05/20 01:21:00;;;;;;;19.75;8.05;;;13.50;93.80;;;;;;4199680;28;20094;-54
2023/05/20 01:23:03;;;;;;;23.30;8.43;;;13.50;93.60;;;;;;4199924;28;20048;-55
2023/05/20 01:25:07;;;;;;;22.05;9.43;;;13.40;93.70;;;;;;4201587;28;20098;-54
2023/05/20 01:27:12;;;;;;;20.05;7.70;;;13.40;93.80;;;;;;4214731;28;20040;-54
2023/05/20 01:29:17;;;;;;;13.95;5.93;;;13.40;93.80;;;;;;4215782;28;20048;-54
2023/05/20 01:31:21;;;;;;;;;;;13.40;94.00;;;;;;4217114;28;20048;-54
2023/05/20 01:33:26;;;;;;;16.23;8.00;;;13.30;94.10;;;;;;4215951;28;19952;-55
2023/05/20 01:35:28;;;;;;;21.27;8.93;;;13.30;94.10;;;;;;4215652;28;20044;-53
2023/05/20 01:37:31;;;;;;;22.58;8.48;;;13.20;94.10;;;;;;4215230;28;20525;-53
2023/05/20 01:39:36;;;;;;;18.75;7.45;;;13.20;94.20;;;;;;4199937;28;20044;-54
2023/05/20 01:41:40;;;;;;;19.83;8.48;;;13.20;94.20;;;;;;4199233;28;20061;-54
2023/05/20 01:43:43;;;;;;;24.13;8.73;;;13.20;94.20;;;;;;4199282;28;20397;-54
2023/05/20 01:45:47;;;;;;;23.38;8.95;;;13.30;94.20;;;;;;4199311;28;20048;-54
2023/05/20 01:47:50;;;;;;;23.27;8.48;;;13.10;94.40;;;;;;4198330;28;20059;-52
2023/05/20 01:49:53;;;;;;;23.23;8.38;;;13.10;94.60;;;;;;4198883;28;20041;-54
2023/05/20 01:51:56;;;;;;;18.83;8.68;;;13.00;94.70;;;;;;4198995;28;20102;-56
2023/05/20 01:53:58;;;;;;;21.13;8.95;;;13.00;94.80;;;;;;4199223;28;20072;-53
2023/05/20 01:56:03;;;;;;;23.48;8.65;;;13.00;94.80;;;;;;4198910;28;20075;-54
2023/05/20 01:58:05;;;;;;;;;;;13.00;95.20;;;;;;4198572;28;20490;-53
2023/05/20 02:00:08;;;;;;;23.98;9.18;;;12.90;94.90;;;;;;4199129;28;19964;-57
2023/05/20 02:02:10;;;;;;;26.88;9.63;;;13.00;94.90;;;;;;4198666;28;20055;-56
2023/05/20 02:04:13;;;;;;;20.40;9.07;;;13.00;94.90;;;;;;4199012;28;20045;-57
2023/05/20 02:06:15;;;;;;;24.75;9.23;;;12.90;95.00;;;;;;4199074;28;20462;-57
2023/05/20 02:08:17;;;;;;;20.77;9.77;;;12.90;95.10;;;;;;4198130;28;20044;-58
2023/05/20 02:10:19;;;;;;;22.48;9.25;;;12.90;95.20;;;;;;4199060;28;20446;-57
2023/05/20 02:12:23;;;;;;;20.77;9.40;;;12.90;95.30;;;;;;4198981;28;20479;-57
2023/05/20 02:14:25;;;;;;;18.73;8.93;;;12.80;95.30;;;;;;4198740;28;20102;-57
2023/05/20 02:16:27;;;;;;;20.98;9.05;;;12.90;95.30;;;;;;4198852;28;20072;-60
2023/05/20 02:18:31;;;;;;;25.63;9.45;;;12.80;95.40;;;;;;4197751;28;20045;-58
2023/05/20 02:20:37;;;;;;;25.80;9.70;;;12.80;95.50;;;;;;4198886;28;20079;-57
2023/05/20 02:22:39;;;;;;;18.08;9.88;;;12.80;95.50;;;;;;4198766;28;20044;-59
2023/05/20 02:24:42;;;;;;;21.00;9.07;;;12.80;95.50;;;;;;4198443;28;20090;-57
2023/05/20 02:26:45;;;;;;;23.20;9.68;;;12.80;95.60;;;;;;4209321;28;20051;-55
2023/05/20 02:28:49;;;;;;;25.27;9.85;;;12.90;95.40;;;;;;4214381;28;20048;-57
2023/05/20 02:30:52;;;;;;;26.60;9.90;;;12.80;95.40;;;;;;4214989;28;20056;-58
2023/05/20 02:32:54;;;;;;;17.35;9.38;;;12.80;95.50;;;;;;4215361;28;20052;-54
2023/05/20 02:34:57;;;;;;;22.30;10.50;;;12.80;95.70;;;;;;4215450;28;20452;-54
2023/05/20 02:36:59;;;;;;;22.92;10.13;;;12.70;95.70;;;;;;4215470;28;20052;-54
2023/05/20 02:39:01;;;;;;;20.20;9.65;;;12.70;95.90;;;;;;4203087;28;20424;-54
2023/05/20 02:41:03;;;;;;;19.08;10.40;;;12.70;95.80;;;;;;4198692;28;20056;-55
2023/05/20 02:43:06;;;;;;;25.05;10.95;;;12.80;95.90;;;;;;4198820;28;20100;-58
2023/05/20 02:45:09;;;;;;;27.17;10.90;;;12.80;95.80;;;;;;4199336;28;20068;-58
2023/05/20 02:47:13;;;;;;;23.10;10.30;;;12.80;95.80;;;;;;4200393;28;20059;-57
2023/05/20 02:49:15;;;;;;;26.55;10.20;;;12.70;96.10;;;;;;4199666;28;20048;-57
2023/05/20 02:51:17;;;;;;;31.30;11.05;;;12.80;96.00;;;;;;4200060;28;20049;-55
2023/05/20 02:53:19;;;;;;;19.58;11.25;;;12.80;95.90;;;;;;4198793;28;20037;-55
2023/05/20 02:55:22;;;;;;;20.33;10.82;;;12.80;96.00;;;;;;4198440;28;20045;-56
2023/05/20 02:57:26;;;;;;;21.05;10.93;;;12.70;96.10;;;;;;4198471;28;20498;-54
2023/05/20 02:59:29;;;;;;;31.67;11.98;;;12.80;96.10;;;;;;4197252;28;20049;-55
2023/05/20 03:01:34;;;;;;;26.15;11.45;;;12.80;96.20;;;;;;4198098;28;20507;-54
2023/05/20 03:03:37;;;;;;;21.67;12.20;;;12.80;96.10;;;;;;4198055;28;20072;-57
2023/05/20 03:05:41;;;;;;;28.42;11.10;;;12.70;96.30;;;;;;4196788;28;20041;-53
2023/05/20 03:07:45;;;;;;;24.52;11.85;;;12.70;96.50;;;;;;4197218;28;20048;-53
2023/05/20 03:09:47;;;;;;;27.13;12.00;;;12.70;96.30;;;;;;4197824;28;20074;-54
2023/05/20 03:11:49;;;;;;;24.10;11.48;;;12.70;96.30;;;;;;4198270;28;20052;-58
2023/05/20 03:13:52;;;;;;;22.38;10.80;;;12.80;96.30;;;;;;4198245;28;20387;-54
2023/05/20 03:15:54;;;;;;;24.73;12.68;;;12.80;96.40;;;;;;4198426;28;20110;-56
2023/05/20 03:17:57;;;;;;;24.40;10.38;;;12.80;96.30;;;;;;4197620;28;20048;-54
2023/05/20 03:20:00;;;;;;;28.40;12.32;;;12.80;96.10;;;;;;4198129;28;20045;-54
2023/05/20 03:22:03;;;;;;;24.67;11.95;;;12.80;96.20;;;;;;4198420;28;20048;-53
2023/05/20 03:24:06;;;;;;;22.52;11.90;;;12.80;96.20;;;;;;4197794;28;20044;-56
2023/05/20 03:26:08;;;;;;;23.40;11.52;;;12.80;96.30;;;;;;4204195;28;20040;-53
2023/05/20 03:28:10;;;;;;;23.77;12.60;;;12.80;96.30;;;;;;4213165;28;20055;-53
2023/05/20 03:30:13;;;;;;;26.83;12.07;;;12.80;96.30;;;;;;4214515;28;20056;-54
2023/05/20 03:32:15;;;;;;;29.88;11.30;;;12.80;96.40;;;;;;4215388;28;20078;-59
2023/05/20 03:34:19;;;;;;;29.80;11.07;;;12.80;96.40;;;;;;4216094;28;20572;-54
2023/05/20 03:36:21;;;;;;;27.88;12.07;;;12.80;96.30;;;;;;4216178;28;20417;-66
2023/05/20 03:38:23;;;;;;;22.38;11.95;;;12.80;96.40;;;;;;4208146;28;20047;-62
2023/05/20 03:40:25;;;;;;;20.58;11.57;;;12.80;96.40;;;;;;4198512;28;20547;-53
2023/05/20 03:42:27;;;;;;;26.10;11.50;;;12.80;96.30;;;;;;4198625;28;20080;-57
2023/05/20 03:44:29;;;;;;;24.02;12.65;;;12.80;96.40;;;;;;4197561;28;20052;-56
2023/05/20 03:46:33;;;;;;;26.55;11.80;;;12.80;96.30;;;;;;4197566;28;20447;-57
2023/05/20 03:48:35;;;;;;;23.92;12.10;;;12.80;96.30;;;;;;4196447;28;20072;-57
2023/05/20 03:50:39;;;;;;;24.00;12.73;;;12.80;96.30;;;;;;4197323;28;20056;-57
2023/05/20 03:52:41;;;;;;;26.70;12.35;;;12.90;96.30;;;;;;4197489;28;20064;-56
2023/05/20 03:54:43;;;;;;;22.95;12.73;;;12.90;96.50;;;;;;4196157;28;20052;-56
2023/05/20 03:56:46;;;;;;;21.25;11.68;;;12.90;96.30;;;;;;4197387;28;20491;-53
2023/05/20 03:58:48;;;;;;;27.17;11.93;;;12.90;96.20;;;;;;4196025;28;20055;-54
2023/05/20 04:00:50;;;;;;;19.00;12.27;;;12.90;96.20;;;;;;4197624;28;20549;-53
2023/05/20 04:02:53;;;;;;;25.40;12.48;;;12.90;96.30;;;;;;4197331;28;20644;-54
2023/05/20 04:04:56;;;;;;;30.98;13.20;;;12.90;96.20;;;;;;4197355;28;20044;-54
2023/05/20 04:07:00;;;;;;;24.75;12.00;;;12.90;96.20;;;;;;4197057;28;20040;-53
2023/05/20 04:09:02;;;;;;;24.75;11.95;;;12.90;96.20;;;;;;4196110;28;20048;-54
2023/05/20 04:11:05;;;;;;;21.17;11.05;;;12.90;96.20;;;;;;4197259;28;20058;-53
2023/05/20 04:13:07;;;;;;;28.20;13.32;;;12.90;96.20;;;;;;4197025;28;20445;-53
2023/05/20 04:15:10;;;;;;;31.00;13.52;;;12.90;96.20;;;;;;4196870;28;20083;-54
2023/05/20 04:17:12;;;;;;;24.65;12.77;;;12.90;96.40;;;;;;4197367;28;20049;-54
2023/05/20 04:19:18;;;;;;;28.70;11.85;;;12.90;96.30;;;;;;4196434;28;20142;-53
2023/05/20 04:21:20;;;;;;;23.33;11.88;;;12.90;96.30;;;;;;4197274;28;20040;-53
2023/05/20 04:23:23;;;;;;;24.38;12.63;;;12.90;96.40;;;;;;4196024;28;20048;-55
2023/05/20 04:25:26;;;;;;;27.77;11.80;;;12.80;96.40;;;;;;4197530;28;20048;-53
2023/05/20 04:27:29;;;;;;;29.63;12.23;;;12.80;96.60;;;;;;4213610;28;20131;-54
2023/05/20 04:29:33;;;;;;;30.08;12.32;;;12.80;96.50;;;;;;4212699;28;20512;-54
2023/05/20 04:31:35;;;;;;;27.48;12.75;;;12.90;96.40;;;;;;4213801;28;20048;-54
2023/05/20 04:33:37;;;;;;;26.98;12.18;;;12.80;96.40;;;;;;4213378;28;20052;-54
2023/05/20 04:35:40;;;;;;;23.23;12.02;;;12.90;96.40;;;;;;4213778;28;20079;-54
2023/05/20 04:37:46;;;;;;;26.27;12.13;;;12.90;96.40;;;;;;4213231;28;20444;-54
2023/05/20 04:39:51;;;;;;;21.60;12.65;;;12.90;96.50;;;;;;4196826;28;20040;-55
2023/05/20 04:41:53;;;;;;;25.00;13.68;;;12.80;96.50;;;;;;4197837;28;20053;-55
2023/05/20 04:43:58;;;;;;;27.95;13.15;;;12.80;96.70;;;;;;4198436;28;20049;-57
2023/05/20 04:46:04;;;;;;;22.95;13.18;;;12.80;96.70;;;;;;4199139;28;20048;-56
2023/05/20 04:48:06;;;;;;;29.77;13.15;;;12.80;96.70;;;;;;4197422;28;20577;-56
2023/05/20 04:50:10;;;;;;;22.13;12.98;;;12.80;96.60;;;;;;4199932;28;20048;-55
2023/05/20 04:52:13;;;;;;;29.73;13.25;;;12.80;96.70;;;;;;4200442;28;20055;-55
2023/05/20 04:54:16;;;;;;;22.63;12.35;;;12.70;96.80;;;;;;4200118;28;20101;-57
2023/05/20 04:56:20;;;;;;;22.48;13.02;;;12.70;96.80;;;;;;4200388;28;20049;-57
2023/05/20 04:58:23;;;;;;;24.05;13.50;;;12.70;96.90;;;;;;4200426;28;20124;-55
2023/05/20 05:00:25;;;;;;;25.23;13.18;;;12.80;96.80;;;;;;4200345;28;20036;-55
2023/05/20 05:02:27;;;;;;;25.63;13.88;;;12.70;96.80;;;;;;4200448;28;20409;-54
2023/05/20 05:04:30;;;;;;;24.33;13.55;;;12.70;96.80;;;;;;4200105;28;20041;-55
2023/05/20 05:06:32;;;;;;;28.88;13.70;;;12.70;96.90;;;;;;4199876;28;20059;-57
2023/05/20 05:08:34;;;;;;;26.30;13.20;;;12.70;97.00;;;;;;4199148;28;20136;-57
2023/05/20 05:10:38;;;;;;;25.77;13.75;;;12.80;97.00;;;;;;4199325;28;20048;-57
2023/05/20 05:12:42;;;;;;;30.65;14.30;;;12.80;96.80;;;;;;4199638;28;20047;-57
2023/05/20 05:14:44;;;;;;;28.67;14.13;;;12.80;96.90;;;;;;4199673;28;20055;-56
2023/05/20 05:16:46;;;;;;;22.55;13.27;;;12.80;96.90;;;;;;4199753;28;20048;-57
2023/05/20 05:18:48;;;;;;;27.92;13.90;;;12.80;97.10;;;;;;4198739;28;20190;-56
2023/05/20 05:20:58;;;;;;;21.50;13.35;;;12.80;97.00;;;;;;4199765;28;20106;-56
2023/05/20 05:23:00;;;;;;;24.23;12.82;;;12.80;96.80;;;;;;4199866;28;20140;-56
2023/05/20 05:25:02;;;;;;;24.38;12.43;;;12.80;96.90;;;;;;4198929;28;20041;-54
2023/05/20 05:27:04;;;;;;;24.65;12.70;;;12.80;96.80;;;;;;4213352;28;20040;-58
2023/05/20 05:29:08;;;;;;;29.23;13.60;;;12.80;96.80;;;;;;4214934;28;20067;-57
2023/05/20 05:31:12;;;;;;;24.42;13.50;;;12.90;96.80;;;;;;4216372;28;20058;-57
2023/05/20 05:33:15;;;;;;;28.20;14.15;;;12.90;96.70;;;;;;4215975;28;20080;-56
2023/05/20 05:35:17;;;;;;;24.48;13.35;;;12.90;96.70;;;;;;4216109;28;20096;-57
2023/05/20 05:37:20;;;;;;;34.35;13.23;;;12.90;96.70;;;;;;4215881;28;20068;-56
2023/05/20 05:39:22;;;;;;;27.77;12.82;;;12.90;96.70;;;;;;4200531;28;20045;-58
2023/05/20 05:41:24;;;;;;;26.42;14.05;;;12.90;96.60;;;;;;4199184;28;20056;-58
2023/05/20 05:43:26;;;;;;;28.92;13.00;;;13.00;96.60;;;;;;4199125;28;20379;-54
2023/05/20 05:45:29;;;;;;;24.77;13.48;;;12.90;96.70;;;;;;4199153;28;20138;-54
2023/05/20 05:47:31;;;;;;;24.80;13.07;;;12.90;96.50;;;;;;4199596;28;20429;-55
2023/05/20 05:49:33;;;;;;;31.58;13.98;;;13.00;96.70;;;;;;4198540;28;20076;-53
2023/05/20 05:51:36;;;;;;;26.77;13.43;;;12.90;97.00;;;;;;4199096;28;20079;-55
2023/05/20 05:53:40;;;;;;;24.50;13.15;;;12.90;96.70;;;;;;4199035;28;20044;-57
2023/05/20 05:55:42;;;;;;;23.90;13.27;;;13.00;96.80;;;;;;4199407;28;20064;-54
2023/05/20 05:57:44;;;;;;;22.08;13.13;;;13.00;96.60;;;;;;4198990;28;20094;-54
2023/05/20 05:59:46;;;;;;;27.48;12.35;;;13.00;96.60;;;;;;4197940;28;20056;-54
2023/05/20 06:01:50;;;;;;;30.48;13.05;;;13.00;96.70;;;;;;4199042;28;20076;-61
2023/05/20 06:03:52;;;;;;;21.65;12.50;;;13.10;96.50;;;;;;4199098;28;20068;-56
2023/05/20 06:05:55;;;;;;;25.77;12.57;;;13.20;96.50;;;;;;4199060;28;20049;-57
2023/05/20 06:07:57;;;;;;;21.90;12.52;;;13.10;96.60;;;;;;4198337;28;20051;-56
2023/05/20 06:09:59;;;;;;;27.50;12.55;;;13.10;96.70;;;;;;4198784;28;20224;-56
2023/05/20 06:12:01;;;;;;;24.10;12.98;;;13.10;96.40;;;;;;4199000;28;20071;-57
2023/05/20 06:14:03;;;;;;;26.90;13.50;;;13.10;96.40;;;;;;4199197;28;20137;-56
2023/05/20 06:16:06;;;;;;;22.83;13.02;;;13.30;96.50;;;;;;4198813;28;20051;-57
2023/05/20 06:18:10;;;;;;;26.63;13.02;;;13.30;96.30;;;;;;4198764;28;20045;-54
2023/05/20 06:20:13;;;;;;;21.02;12.75;;;13.30;96.20;;;;;;4198418;28;20045;-54
2023/05/20 06:22:15;;;;;;;24.73;12.75;;;13.20;96.30;;;;;;4198566;28;20395;-56
2023/05/20 06:24:17;;;;;;;24.23;12.35;;;13.20;96.50;;;;;;4198503;28;20051;-56
2023/05/20 06:26:19;;;;;;;19.55;10.82;;;13.30;96.50;;;;;;4206658;28;20127;-56
2023/05/20 06:28:21;;;;;;;25.88;13.13;;;13.30;96.50;;;;;;4215587;28;20536;-56
2023/05/20 06:30:24;;;;;;;24.38;12.93;;;13.40;96.40;;;;;;4216592;28;20044;-54
2023/05/20 06:32:26;;;;;;;25.17;12.55;;;13.40;96.10;;;;;;4217071;28;20051;-55
2023/05/20 06:34:30;;;;;;;23.05;12.70;;;13.40;96.10;;;;;;4217051;28;20048;-56
2023/05/20 06:36:32;;;;;;;25.13;11.98;;;13.50;96.30;;;;;;4217496;28;20044;-57
2023/05/20 06:38:34;;;;;;;22.88;12.88;;;13.50;96.20;;;;;;4209685;28;20387;-61
2023/05/20 06:40:37;;;;;;;25.23;12.80;;;13.50;96.00;;;;;;4200772;28;20387;-54
2023/05/20 06:42:40;;;;;;;26.48;12.55;;;13.50;96.00;;;;;;4200462;28;20050;-56
2023/05/20 06:44:42;;;;;;;23.60;12.95;;;13.60;96.30;;;;;;4200099;28;20048;-61
2023/05/20 06:46:46;;;;;;;24.83;12.20;;;13.70;95.90;;;;;;4199352;28;20074;-55
2023/05/20 06:48:48;;;;;;;22.85;12.15;;;13.70;95.80;;;;;;4198209;28;20056;-54
2023/05/20 06:50:52;;;;;;;30.27;12.20;;;13.80;95.80;;;;;;4198539;28;20135;-54
2023/05/20 06:52:54;;;;;;;22.10;11.77;;;13.90;95.60;;;;;;4198345;28;20048;-54
2023/05/20 06:54:56;;;;;;;29.35;12.75;;;14.00;95.50;;;;;;4198081;28;20482;-53
2023/05/20 06:56:58;;;;;;;26.38;12.32;;;14.00;95.40;;;;;;4198144;28;20102;-54
2023/05/20 06:59:00;;;;;;;22.45;12.95;;;14.00;95.40;;;;;;4197393;28;20466;-53
2023/05/20 07:01:02;;;;;;;22.38;12.23;;;14.10;95.50;;;;;;4197898;28;20056;-53
2023/05/20 07:03:05;;;;;;;19.60;11.18;;;14.20;95.30;;;;;;4198161;28;20131;-56
2023/05/20 07:05:08;;;;;;;19.08;11.20;;;14.20;95.30;;;;;;4198244;28;20048;-55
2023/05/20 07:07:12;;;;;;;20.55;11.07;;;14.40;95.10;;;;;;4197561;28;20041;-54
2023/05/20 07:09:18;;;;;;;21.75;11.70;;;14.50;95.00;;;;;;4196906;28;20417;-54
2023/05/20 07:11:20;;;;;;;19.67;11.45;;;14.60;94.80;;;;;;4197812;28;20048;-54
2023/05/20 07:13:22;;;;;;;20.42;10.57;;;14.70;94.80;;;;;;4197588;28;20407;-54
2023/05/20 07:15:25;;;;;;;23.42;11.43;;;14.80;94.60;;;;;;4197809;28;20036;-54
2023/05/20 07:17:28;;;;;;;29.25;12.80;;;15.00;94.40;;;;;;4197808;28;20053;-54
2023/05/20 07:19:30;;;;;;;41.67;12.88;;;15.10;94.00;;;;;;4196941;28;20048;-54
2023/05/20 07:21:33;;;;;;;21.70;11.57;;;15.10;94.10;;;;;;4197253;28;20395;-55
2023/05/20 07:23:36;;;;;;;21.75;11.18;;;15.20;93.90;;;;;;4197612;28;20226;-58
2023/05/20 07:25:38;;;;;;;22.70;10.70;;;15.20;94.00;;;;;;4199677;28;20052;-56
2023/05/20 07:27:41;;;;;;;24.25;11.15;;;15.40;93.80;;;;;;4214433;28;20040;-56
2023/05/20 07:29:43;;;;;;;20.33;10.60;;;15.40;93.40;;;;;;4213392;28;20050;-54
2023/05/20 07:31:46;;;;;;;23.48;10.50;;;15.50;93.60;;;;;;4214138;28;20127;-54
2023/05/20 07:33:48;;;;;;;20.95;10.15;;;15.70;93.20;;;;;;4196445;28;20121;-53
2023/05/20 07:35:53;;;;;;;23.02;10.73;;;15.80;93.20;;;;;;4214251;28;20052;-54
2023/05/20 07:37:55;;;;;;;17.65;10.30;;;15.90;93.00;;;;;;4212231;28;20047;-53
2023/05/20 07:39:59;;;;;;;24.90;10.68;;;15.90;93.00;;;;;;4196401;28;20055;-54
2023/05/20 07:42:01;;;;;;;23.80;11.18;;;16.00;92.70;;;;;;4197404;28;20056;-54
2023/05/20 07:44:05;;;;;;;17.55;10.05;;;16.00;92.60;;;;;;4197556;28;20058;-57
2023/05/20 07:46:09;;;;;;;18.92;9.85;;;16.20;92.60;;;;;;4197195;28;20135;-57
2023/05/20 07:48:11;;;;;;;20.00;9.38;;;16.40;92.40;;;;;;4197503;28;20193;-54
2023/05/20 07:50:14;;;;;;;16.70;10.30;;;16.30;92.20;;;;;;4196314;28;20076;-55
2023/05/20 07:52:16;;;;;;;16.90;9.60;;;16.40;91.90;;;;;;4197775;28;20047;-54
2023/05/20 07:54:18;;;;;;;22.00;10.23;;;16.50;92.10;;;;;;4198120;28;20475;-54
2023/05/20 07:56:21;;;;;;;12.45;8.70;;;16.50;92.00;;;;;;4198062;28;20052;-54
2023/05/20 07:58:24;;;;;;;24.05;10.20;;;16.60;91.80;;;;;;4197788;28;20119;-54
2023/05/20 08:00:26;;;;;;;21.40;9.82;;;16.70;91.70;;;;;;4196313;28;20049;-58
2023/05/20 08:02:28;;;;;;;17.25;9.30;;;16.70;91.50;;;;;;4197306;28;20052;-57
2023/05/20 08:04:30;;;;;;;21.35;9.20;;;16.70;91.60;;;;;;4196859;28;20406;-54
2023/05/20 08:06:34;;;;;;;21.73;9.57;;;16.80;91.40;;;;;;4197009;28;20083;-54
2023/05/20 08:08:36;;;;;;;19.63;9.73;;;16.90;91.70;;;;;;4196694;28;20402;-57
2023/05/20 08:10:38;;;;;;;16.55;9.20;;;16.90;91.50;;;;;;4196714;28;20074;-53
2023/05/20 08:12:41;;;;;;;17.77;9.48;;;17.00;91.10;;;;;;4197021;28;20055;-57
2023/05/20 08:14:44;;;;;;;16.95;9.15;;;17.00;91.20;;;;;;4196881;28;20163;-58
2023/05/20 08:16:46;;;;;;;22.42;9.18;;;17.00;91.30;;;;;;4196806;28;20049;-57
2023/05/20 08:18:48;;;;;;;17.92;8.48;;;17.20;91.20;;;;;;4195689;28;20044;-57
2023/05/20 08:20:50;;;;;;;17.80;8.85;;;17.40;91.20;;;;;;4196627;28;20044;-58
2023/05/20 08:22:52;;;;;;;17.65;7.55;;;17.50;90.90;;;;;;4197251;28;20068;-57
2023/05/20 08:24:54;;;;;;;17.80;8.48;;;17.70;91.20;;;;;;4199643;28;20055;-56
2023/05/20 08:26:56;;;;;;;12.27;6.82;;;17.70;90.40;;;;;;4213075;28;20082;-57
2023/05/20 08:29:00;;;;;;;15.45;7.95;;;17.70;90.30;;;;;;4216262;28;20071;-57
2023/05/20 08:31:02;;;;;;;12.82;7.93;;;17.60;90.50;;;;;;4217021;28;20079;-57
2023/05/20 08:33:04;;;;;;;16.42;7.45;;;17.70;90.80;;;;;;4216490;28;20051;-54
2023/05/20 08:35:08;;;;;;;14.90;7.80;;;17.70;90.80;;;;;;4216731;28;20048;-55
2023/05/20 08:37:10;;;;;;;18.02;7.80;;;17.80;90.90;;;;;;4216918;28;20097;-54
2023/05/20 08:39:12;;;;;;;14.70;7.80;;;17.90;90.60;;;;;;4203381;28;20083;-56
2023/05/20 08:41:14;;;;;;;19.23;7.57;;;17.70;89.70;;;;;;4200212;28;20483;-57
2023/05/20 08:43:17;;;;;;;16.63;7.63;;;17.60;90.10;;;;;;4200603;28;20044;-56
2023/05/20 08:45:26;;;;;;;11.75;6.80;;;17.70;90.40;;;;;;4200491;28;20078;-57
2023/05/20 08:47:28;;;;;;;17.92;7.10;;;17.70;90.30;;;;;;4199963;28;20044;-57
2023/05/20 08:49:31;;;;;;;14.57;6.90;;;17.70;89.80;;;;;;4199248;28;20052;-56
2023/05/20 08:51:36;;;;;;;14.32;7.35;;;17.80;90.00;;;;;;4199939;28;20109;-53
2023/05/20 08:53:39;;;;;;;21.00;7.25;;;17.60;89.80;;;;;;4199928;28;20542;-54
2023/05/20 08:55:44;;;;;;;11.85;6.32;;;17.60;90.10;;;;;;4199957;28;20051;-52
2023/05/20 08:57:46;;;;;;;;;;;17.80;90.40;;;;;;4200242;28;20083;-53
2023/05/20 08:59:48;;;;;;;16.52;7.03;;;17.90;90.00;;;;;;4198975;28;20328;-54
2023/05/20 09:01:51;;;;;;;13.13;6.80;;;17.90;90.20;;;;;;4199391;28;20064;-53
2023/05/20 09:03:53;;;;;;;12.23;6.30;;;17.90;90.10;;;;;;4199935;28;20445;-54
2023/05/20 09:06:03;;;;;;;12.65;5.95;;;18.00;89.70;;;;;;4199756;28;20054;-54
2023/05/20 09:08:06;;;;;;;10.50;5.47;;;18.00;88.80;;;;;;4199767;28;20075;-52
2023/05/20 09:10:09;;;;;;;16.00;6.05;;;18.10;88.80;;;;;;4198685;28;20051;-51
2023/05/20 09:12:11;;;;;;;14.85;5.63;;;18.10;89.10;;;;;;4199456;28;20098;-51
2023/05/20 09:14:13;;;;;;;10.57;5.15;;;18.10;89.10;;;;;;4199660;28;20052;-52
2023/05/20 09:16:15;;;;;;;7.18;4.20;;;18.20;87.20;;;;;;4199808;28;20048;-52
2023/05/20 09:18:19;;;;;;;12.73;4.68;;;18.30;86.50;;;;;;4200164;28;20115;-57
2023/05/20 09:20:25;;;;;;;14.80;5.53;;;18.30;87.10;;;;;;4199659;28;20044;-51
2023/05/20 09:22:28;;;;;;;8.70;4.68;;;18.30;86.30;;;;;;4199893;28;20051;-58
2023/05/20 09:24:30;;;;;;;11.60;4.43;;;18.30;86.30;;;;;;4198441;28;20406;-57
2023/05/20 09:26:33;;;;;;;10.25;3.97;;;18.40;86.70;;;;;;4209240;28;20406;-56
2023/05/20 09:28:37;;;;;;;13.80;4.57;;;18.40;85.80;;;;;;4216219;28;20050;-55
2023/05/20 09:30:40;;;;;;;12.98;4.63;;;18.40;85.70;;;;;;4214967;28;20048;-54
2023/05/20 09:32:42;;;;;;;9.88;4.57;;;18.50;86.40;;;;;;4216727;28;20105;-57
2023/05/20 09:34:47;;;;;;;12.40;4.68;;;18.60;86.70;;;;;;4217133;28;20052;-53
2023/05/20 09:36:50;;;;;;;9.38;4.25;;;18.70;85.80;;;;;;4217618;28;20056;-55
2023/05/20 09:38:53;;;;;;;11.23;4.70;;;18.60;85.60;;;;;;4206109;28;20128;-59
2023/05/20 09:40:55;;;;;;;16.27;4.80;;;18.70;86.10;;;;;;4199048;28;20058;-56
2023/05/20 09:43:01;;;;;;;17.23;4.40;;;18.80;86.30;;;;;;4199064;28;20513;-60
2023/05/20 09:45:05;;;;;;;13.23;3.90;;;18.90;85.90;;;;;;4199014;28;20044;-56
2023/05/20 09:47:08;;;;;;;6.72;3.50;;;19.00;85.00;;;;;;4199204;28;20098;-56
2023/05/20 09:49:11;;;;;;;7.93;3.33;;;18.90;85.20;;;;;;4198270;28;20049;-54
2023/05/20 09:51:16;;;;;;;8.88;3.60;;;19.10;84.50;;;;;;4199073;28;20068;-53
2023/05/20 09:53:19;;;;;;;6.97;3.95;;;19.20;84.00;;;;;;4199231;28;20049;-53
2023/05/20 09:55:23;;;;;;;7.18;3.55;;;19.10;83.90;;;;;;4199282;28;20546;-56
2023/05/20 09:57:26;;;;;;;7.35;3.13;;;19.10;83.40;;;;;;4199107;28;20405;-56
2023/05/20 09:59:30;;;;;;;7.70;3.42;;;19.20;84.20;;;;;;4197801;28;20075;-57
2023/05/20 10:01:32;;;;;;;7.75;3.47;;;19.40;84.20;;;;;;4198678;28;20072;-57
2023/05/20 10:03:34;;;;;;;13.52;3.88;;;19.60;84.30;;;;;;4198968;28;20055;-53
2023/05/20 10:05:40;;;;;;;9.15;3.50;;;19.70;82.20;;;;;;4199074;28;20049;-53
2023/05/20 10:08:24;;;;;;;9.85;3.45;;;19.80;82.00;;;;;;4199025;28;20132;-54
2023/05/20 10:10:37;;;;;;;8.48;3.35;;;19.60;81.60;;;;;;4198760;28;20094;-59
2023/05/20 10:12:57;;;;;;;9.18;3.30;;;19.60;81.90;;;;;;4198888;28;20387;-56
2023/05/20 10:15:09;;;;;;;10.25;3.40;;;19.60;81.90;;;;;;4197210;28;20052;-57
2023/05/20 10:17:19;;;;;;;11.18;3.13;;;19.60;81.80;;;;;;4198873;28;20444;-57
2023/05/20 10:19:31;;;;;;;9.90;3.40;;;19.70;81.80;;;;;;4197659;28;20078;-56
2023/05/20 10:21:33;;;;;;;8.98;3.58;;;19.70;81.80;;;;;;4198659;28;20044;-56
2023/05/20 10:23:37;;;;;;;9.43;3.35;;;19.80;81.40;;;;;;4198617;28;20048;-56
2023/05/20 10:25:50;;;;;;;5.38;3.00;;;19.90;80.90;;;;;;4200518;28;20281;-56
2023/05/20 10:28:03;;;;;;;7.88;2.80;;;20.00;80.30;;;;;;4215348;28;20048;-55
2023/05/20 10:30:14;;;;;;;6.47;2.92;;;20.00;80.50;;;;;;4195668;28;20376;-56